CheckWX is a tool to help pilots better visualize weather data.  It is not intended as a substitute for an official pre-flight weather briefing.

03:54:37 UTC

KDHN METAR
Dothan Regional Airport
Dothan, Alabama, USA
Current

1 hour ago

KDHN 270253Z AUTO 23007KT 10SM FEW075 29/22 A3011 RMK AO2 SLP188 T02940217 53010
Observed
May-27 @ 02:53 UTC
Wind
  • 230° at 7 KTS
Visibility
10 SM
Flight Rules
VFR
Cloud Levels
  • Few at 7,500' AGL
Temperature
29°C / 84°F
Dewpoint
22°C / 72°F
Heat Index
32°C / 89°F
Humidity
66%
Altimeter
30.11" Hg
Pressure
1019.62 hPa
Previous

2 hours ago

KDHN 270153Z AUTO 23009KT 10SM BKN070 31/21 A3010 RMK AO2 SLP185 T03110206
Observed
May-27 @ 01:53 UTC
Wind
  • 230° at 9 KTS
Visibility
10 SM
Flight Rules
VFR
Cloud Levels
  • Broken at 7,000' AGL
Temperature
31°C / 88°F
Dewpoint
21°C / 70°F
Heat Index
34°C / 93°F
Humidity
55%
Altimeter
30.1" Hg
Pressure
1019.32 hPa
Previous

3 hours ago

KDHN 270053Z AUTO 19006KT 10SM BKN075 OVC090 33/19 A3009 RMK AO2 SLP182 T03280194
Observed
May-27 @ 00:53 UTC
Wind
  • 190° at 6 KTS
Visibility
10 SM
Flight Rules
VFR
Cloud Levels
  • Broken at 7,500' AGL
  • Overcast at 9,000' AGL
Temperature
33°C / 91°F
Dewpoint
19°C / 66°F
Heat Index
34°C / 94°F
Humidity
44%
Altimeter
30.09" Hg
Pressure
1018.92 hPa